Time;durP1;ratioP1;P1;durP2;ratioP2;P2;SDS_P1;SDS_P2;PMS_P1;PMS_P2;Temp;Humidity;BMP_temperature;BMP_pressure;BME280_temperature;BME280_humidity;BME280_pressure;Samples;Min_cycle;Max_cycle;Signal;HPM_P1;HPM_P2
2022/09/11 00:00:31;;;;;;;27.20;24.27;;;;;;;13.17;100.00;101572.16;4971455;30;20043;-69
2022/09/11 00:03:03;;;;;;;25.20;22.50;;;;;;;13.20;100.00;101579.97;4987542;30;20039;-68
2022/09/11 00:05:39;;;;;;;29.47;23.27;;;;;;;13.07;100.00;101568.78;4987424;30;20039;-69
2022/09/11 00:08:13;;;;;;;29.52;23.17;;;;;;;13.06;100.00;101580.16;4987898;30;20158;-68
2022/09/11 00:10:47;;;;;;;30.40;24.08;;;;;;;13.07;100.00;101574.00;4987811;30;20043;-68
2022/09/11 00:13:21;;;;;;;25.40;22.77;;;;;;;13.03;100.00;101578.41;4987631;30;20043;-68
2022/09/11 00:15:52;;;;;;;23.48;20.63;;;;;;;13.04;100.00;101574.03;4971595;30;20126;-68
2022/09/11 00:18:24;;;;;;;23.60;21.23;;;;;;;13.00;100.00;101577.59;4987179;30;20118;-68
2022/09/11 00:20:57;;;;;;;26.60;22.20;;;;;;;13.02;100.00;101576.66;4987121;30;20031;-68
2022/09/11 00:23:29;;;;;;;23.70;20.52;;;;;;;13.04;100.00;101579.28;4986878;30;20047;-68
2022/09/11 00:26:02;;;;;;;28.47;20.83;;;;;;;12.88;100.00;101570.72;4987358;30;20334;-68
2022/09/11 00:28:35;;;;;;;21.65;19.13;;;;;;;12.96;100.00;101582.00;4987065;30;20046;-68
2022/09/11 00:31:11;;;;;;;22.23;19.80;;;;;;;12.83;100.00;101586.47;4986777;30;20035;-68
2022/09/11 00:33:43;;;;;;;23.23;20.88;;;;;;;12.75;100.00;101583.94;4987250;30;20039;-69
2022/09/11 00:36:17;;;;;;;26.92;22.13;;;;;;;12.79;100.00;101589.13;4986979;30;20070;-70
2022/09/11 00:38:49;;;;;;;30.40;23.70;;;;;;;12.71;100.00;101587.44;4970943;30;20072;-68
2022/09/11 00:41:37;;;;;;;24.38;21.85;;;;;;;12.80;100.00;101583.00;4987007;30;20045;-68
2022/09/11 00:44:20;;;;;;;30.88;25.70;;;;;;;12.76;100.00;101592.63;4986831;30;20472;-69
2022/09/11 00:46:57;;;;;;;31.60;25.33;;;;;;;12.68;100.00;101582.22;4986735;30;20059;-69
2022/09/11 00:49:39;;;;;;;31.08;25.90;;;;;;;12.77;100.00;101584.78;4987182;30;20100;-68
2022/09/11 00:52:18;;;;;;;33.08;26.77;;;;;;;12.75;100.00;101596.13;4986736;30;20059;-69
2022/09/11 00:55:01;;;;;;;32.03;25.55;;;;;;;12.66;100.00;101596.22;4986897;30;20542;-69
2022/09/11 00:57:38;;;;;;;33.78;27.15;;;;;;;12.66;100.00;101599.69;4986375;29;20031;-68
2022/09/11 01:00:11;;;;;;;37.67;28.88;;;;;;;12.68;100.00;101595.31;4987253;30;20042;-68
2022/09/11 01:02:47;;;;;;;33.65;26.83;;;;;;;12.67;100.00;101598.81;4986325;30;20047;-68
2022/09/11 01:05:21;;;;;;;33.05;29.27;;;;;;;12.68;100.00;101603.16;4986439;30;20114;-68
2022/09/11 01:07:54;;;;;;;43.40;34.92;;;;;;;12.66;100.00;101604.06;4986241;30;20484;-69
2022/09/11 01:10:37;;;;;;;43.15;31.58;;;;;;;12.64;100.00;101604.06;4985852;30;20473;-68
2022/09/11 01:13:18;;;;;;;38.97;30.83;;;;;;;12.63;100.00;101604.94;4986248;30;20127;-69
2022/09/11 01:16:28;;;;;;;46.35;33.03;;;;;;;12.63;100.00;101611.94;4986509;30;20031;-70
2022/09/11 01:19:36;;;;;;;38.92;32.42;;;;;;;12.62;100.00;101618.91;4928322;30;20101;-68
2022/09/11 01:22:10;;;;;;;47.78;33.50;;;;;;;12.62;100.00;101610.19;4910122;30;20065;-69
2022/09/11 01:25:08;;;;;;;41.50;32.60;;;;;;;12.60;100.00;101615.44;4960374;30;20047;-68
2022/09/11 01:28:12;;;;;;;39.97;33.20;;;;;;;12.64;100.00;101616.25;4942289;30;20051;-68
2022/09/11 01:30:49;;;;;;;39.88;31.45;;;;;;;12.66;100.00;101604.94;4964659;30;20054;-68
2022/09/11 01:33:36;;;;;;;45.80;34.58;;;;;;;12.58;100.00;101610.22;4967732;30;20085;-68
2022/09/11 01:36:33;;;;;;;49.50;34.70;;;;;;;12.51;100.00;101608.53;4967433;30;20156;-69
2022/09/11 01:39:04;;;;;;;33.78;29.02;;;;;;;12.52;100.00;101612.00;4967841;30;20036;-68
2022/09/11 01:41:46;;;;;;;31.80;27.33;;;;;;;12.44;100.00;101608.59;4967314;30;20071;-68
2022/09/11 01:44:30;;;;;;;33.88;26.75;;;;;;;12.45;100.00;101620.78;4967489;30;20506;-68
2022/09/11 01:47:06;;;;;;;37.08;28.15;;;;;;;12.38;100.00;101618.22;4967652;30;20032;-71
2022/09/11 01:50:00;;;;;;;32.92;27.58;;;;;;;12.44;100.00;101629.50;4967157;30;20079;-69
2022/09/11 01:52:41;;;;;;;29.63;25.60;;;;;;;12.42;100.00;101626.91;4966022;30;20043;-68
2022/09/11 01:55:19;;;;;;;29.55;25.23;;;;;;;12.38;100.00;101620.84;4967846;30;20036;-70
2022/09/11 01:58:20;;;;;;;34.97;27.52;;;;;;;12.35;100.00;101623.47;4967763;30;20118;-69
2022/09/11 02:00:56;;;;;;;29.38;25.88;;;;;;;12.30;100.00;101622.63;4959908;30;20496;-68
2022/09/11 02:03:42;;;;;;;27.48;24.58;;;;;;;12.28;100.00;101623.50;4967786;30;20102;-68
2022/09/11 02:06:20;;;;;;;27.92;24.90;;;;;;;12.32;100.00;101620.00;4967218;30;20036;-68
2022/09/11 02:09:01;;;;;;;30.38;25.48;;;;;;;12.16;100.00;101627.94;4969047;30;20055;-70
2022/09/11 02:11:39;;;;;;;28.88;25.58;;;;;;;12.20;100.00;101629.66;4971233;30;20426;-68
2022/09/11 02:14:20;;;;;;;30.63;25.25;;;;;;;12.18;100.00;101634.00;4971112;30;20043;-68
2022/09/11 02:16:59;;;;;;;31.95;26.88;;;;;;;12.11;100.00;101632.31;4971313;30;20074;-68
2022/09/11 02:19:31;;;;;;;39.75;30.73;;;;;;;12.07;100.00;101624.50;4970395;30;20440;-68
2022/09/11 02:22:04;;;;;;;32.03;28.70;;;;;;;12.16;100.00;101630.56;4976553;30;20063;-68
2022/09/11 02:24:36;;;;;;;35.28;29.38;;;;;;;12.13;100.00;101633.19;4989325;30;20062;-68
2022/09/11 02:27:12;;;;;;;32.70;29.20;;;;;;;12.10;100.00;101634.94;4959007;30;20123;-68
2022/09/11 02:29:44;;;;;;;34.05;28.00;;;;;;;12.06;100.00;101641.06;4989813;30;20039;-68
2022/09/11 02:32:17;;;;;;;33.03;28.13;;;;;;;12.14;100.00;101636.66;4989227;30;20468;-68
2022/09/11 02:34:52;;;;;;;44.53;33.05;;;;;;;12.11;100.00;101631.47;4989089;30;20050;-68
2022/09/11 02:37:44;;;;;;;34.90;29.33;;;;;;;12.10;100.00;101640.19;4988999;30;20369;-68
2022/09/11 02:40:46;;;;;;;34.72;28.90;;;;;;;12.07;100.00;101632.34;4989777;30;20476;-68
2022/09/11 02:43:21;;;;;;;36.70;30.35;;;;;;;12.04;100.00;101638.44;4988838;30;20055;-68
2022/09/11 02:46:07;;;;;;;39.55;30.52;;;;;;;12.05;100.00;101640.19;4988888;30;20042;-68
2022/09/11 02:49:02;;;;;;;39.83;29.95;;;;;;;11.96;100.00;101640.22;4989406;30;20460;-68
2022/09/11 02:51:38;;;;;;;32.53;28.00;;;;;;;12.00;100.00;101644.59;4988974;30;20412;-70
2022/09/11 02:54:18;;;;;;;35.97;29.27;;;;;;;11.91;100.00;101645.44;4989013;30;20425;-68
2022/09/11 02:57:08;;;;;;;35.78;28.15;;;;;;;11.86;100.00;101644.59;4988798;30;20388;-68
2022/09/11 02:59:50;;;;;;;31.65;27.77;;;;;;;11.99;100.00;101645.44;4988582;30;20031;-68
2022/09/11 03:02:23;;;;;;;38.78;30.77;;;;;;;11.89;100.00;101647.19;4988369;30;20043;-68
2022/09/11 03:04:55;;;;;;;40.08;30.65;;;;;;;11.89;100.00;101649.81;4972416;30;20365;-68
2022/09/11 03:07:27;;;;;;;40.47;31.23;;;;;;;11.95;100.00;101654.19;4988510;30;20137;-68
2022/09/11 03:09:58;;;;;;;46.57;29.57;;;;;;;11.86;100.00;101658.56;4972365;30;20039;-69
2022/09/11 03:12:29;;;;;;;44.17;30.40;;;;;;;11.86;100.00;101652.44;4988472;30;20043;-69
2022/09/11 03:15:01;;;;;;;39.33;29.57;;;;;;;11.91;100.00;101652.44;4988453;30;20039;-69
2022/09/11 03:17:33;;;;;;;39.35;30.75;;;;;;;11.97;100.00;101661.13;4988603;30;20039;-69
2022/09/11 03:20:05;;;;;;;47.77;33.33;;;;;;;11.90;100.00;101651.56;4971408;30;20127;-68
2022/09/11 03:22:36;;;;;;;61.25;35.10;;;;;;;11.91;100.00;101655.03;4988574;30;20055;-68
2022/09/11 03:25:09;;;;;;;51.97;33.53;;;;;;;11.96;100.00;101656.81;4987936;30;20061;-69
2022/09/11 03:27:41;;;;;;;61.17;34.72;;;;;;;11.93;100.00;101650.69;4988064;30;20116;-68
2022/09/11 03:30:13;;;;;;;60.40;35.72;;;;;;;11.94;100.00;101655.06;4988140;30;20035;-68
2022/09/11 03:32:44;;;;;;;62.37;35.10;;;;;;;12.03;100.00;101649.78;4988577;30;20042;-69
2022/09/11 03:35:16;;;;;;;240.97;44.37;;;;;;;11.96;100.00;101653.31;4971786;30;20046;-68
2022/09/11 03:37:47;;;;;;;41.70;35.07;;;;;;;12.09;100.00;101662.84;4988427;30;20126;-69
2022/09/11 03:40:19;;;;;;;65.47;35.30;;;;;;;12.08;100.00;101661.09;4987935;30;20089;-68
2022/09/11 03:42:50;;;;;;;99.37;34.37;;;;;;;12.11;100.00;101657.59;4987900;30;20503;-69
2022/09/11 03:45:21;;;;;;;98.33;34.13;;;;;;;12.11;100.00;101657.59;4987840;30;20035;-68
2022/09/11 03:47:53;;;;;;;63.37;32.20;;;;;;;12.10;100.00;101661.94;4988044;30;20039;-69
2022/09/11 03:50:25;;;;;;;45.73;32.40;;;;;;;12.14;100.00;101668.91;4987799;30;20613;-69
2022/09/11 03:52:57;;;;;;;76.60;34.10;;;;;;;12.13;100.00;101669.78;4987738;30;20392;-68
2022/09/11 03:55:28;;;;;;;43.85;32.50;;;;;;;12.18;100.00;101659.28;4988175;30;20525;-69
2022/09/11 03:57:59;;;;;;;50.37;34.07;;;;;;;12.23;100.00;101667.97;4987595;30;20039;-68
2022/09/11 04:00:31;;;;;;;69.37;33.07;;;;;;;12.19;100.00;101666.28;4987623;30;20038;-69
2022/09/11 04:03:02;;;;;;;42.97;31.67;;;;;;;12.27;100.00;101666.22;4987810;30;20088;-69
2022/09/11 04:05:33;;;;;;;38.53;30.77;;;;;;;12.22;100.00;101659.28;4987516;30;20039;-69
2022/09/11 04:08:05;;;;;;;54.17;31.93;;;;;;;12.17;100.00;101663.66;4971130;30;20416;-68
2022/09/11 04:10:37;;;;;;;41.63;28.93;;;;;;;12.17;100.00;101655.81;4987181;30;20035;-68
2022/09/11 04:13:08;;;;;;;39.33;27.02;;;;;;;12.16;100.00;101656.69;4987304;30;20384;-69
2022/09/11 04:15:39;;;;;;;55.90;29.47;;;;;;;12.11;100.00;101661.06;4987405;30;20031;-69
2022/09/11 04:18:11;;;;;;;84.23;29.37;;;;;;;12.05;100.00;101658.50;4987267;30;20067;-69
2022/09/11 04:20:42;;;;;;;80.27;29.03;;;;;;;12.01;100.00;101657.63;4987265;30;20050;-69
2022/09/11 04:23:13;;;;;;;88.67;28.97;;;;;;;11.93;100.00;101659.44;4987167;30;20468;-69
2022/09/11 04:25:45;;;;;;;119.13;30.33;;;;;;;11.92;100.00;101660.28;4987661;30;20039;-69
2022/09/11 04:28:16;;;;;;;84.90;28.97;;;;;;;11.93;100.00;101666.38;4986829;30;20058;-69
2022/09/11 04:30:48;;;;;;;49.20;28.23;;;;;;;12.00;100.00;101660.25;4986931;29;20054;-69
2022/09/11 04:33:20;;;;;;;71.70;29.13;;;;;;;11.91;100.00;101658.50;4986840;30;20180;-70
2022/09/11 04:35:51;;;;;;;61.35;26.25;;;;;;;11.85;100.00;101661.19;4986910;30;20043;-70
2022/09/11 04:38:23;;;;;;;39.60;26.20;;;;;;;11.89;100.00;101657.66;4970772;30;20484;-70
2022/09/11 04:40:59;;;;;;;31.37;25.13;;;;;;;11.91;100.00;101663.72;4986881;30;20031;-68
2022/09/11 04:43:33;;;;;;;38.55;24.80;;;;;;;11.82;100.00;101663.78;4971041;30;20049;-68
2022/09/11 04:46:07;;;;;;;30.70;24.88;;;;;;;11.83;100.00;101662.91;4986485;30;20178;-69
2022/09/11 04:48:52;;;;;;;40.72;26.90;;;;;;;11.79;100.00;101667.28;4986745;30;20050;-69
2022/09/11 04:51:27;;;;;;;110.32;27.92;;;;;;;11.74;100.00;101676.88;4986561;30;20035;-69
2022/09/11 04:53:59;;;;;;;29.27;25.73;;;;;;;11.85;100.00;101672.47;4986801;30;20384;-69
2022/09/11 04:56:33;;;;;;;36.28;26.52;;;;;;;11.84;100.00;101680.31;4986872;30;20131;-69
2022/09/11 04:59:08;;;;;;;70.57;26.90;;;;;;;11.70;100.00;101671.66;4986184;30;20100;-69
2022/09/11 05:01:39;;;;;;;36.75;25.30;;;;;;;11.78;100.00;101675.13;4986504;30;20039;-69
2022/09/11 05:04:15;;;;;;;39.80;26.20;;;;;;;11.80;100.00;101674.25;4986141;30;20046;-69
2022/09/11 05:06:47;;;;;;;28.02;25.33;;;;;;;11.85;100.00;101674.22;4986052;30;20499;-70
2022/09/11 05:09:19;;;;;;;42.63;26.90;;;;;;;11.82;100.00;101667.25;4986161;30;20062;-70
2022/09/11 05:11:50;;;;;;;33.05;27.48;;;;;;;11.78;100.00;101675.13;4985833;30;20118;-69
2022/09/11 05:14:22;;;;;;;29.13;25.90;;;;;;;11.80;100.00;101676.84;4986243;30;20043;-69
2022/09/11 05:16:53;;;;;;;37.90;26.87;;;;;;;11.76;100.00;101677.72;4986241;30;20384;-69
2022/09/11 05:19:25;;;;;;;83.50;27.70;;;;;;;11.66;100.00;101679.50;4985822;30;20035;-69
2022/09/11 05:21:56;;;;;;;104.60;29.27;;;;;;;11.59;100.00;101692.56;4985908;30;20056;-69
2022/09/11 05:24:28;;;;;;;108.43;31.27;;;;;;;11.49;100.00;101692.63;4985569;30;20039;-71
2022/09/11 05:27:00;;;;;;;28.50;25.60;;;;;;;11.62;100.00;101703.91;4986199;30;20039;-70
2022/09/11 05:29:31;;;;;;;71.50;27.30;;;;;;;11.44;100.00;101706.53;4985808;30;20288;-69
2022/09/11 05:32:04;;;;;;;175.50;33.97;;;;;;;11.40;100.00;101710.00;4985619;30;20285;-69
2022/09/11 05:34:36;;;;;;;80.18;30.05;;;;;;;11.42;100.00;101714.38;4985706;30;20032;-69
2022/09/11 05:37:07;;;;;;;56.53;29.00;;;;;;;11.43;100.00;101718.72;4985874;30;20454;-69
2022/09/11 05:39:38;;;;;;;90.07;28.53;;;;;;;11.31;100.00;101727.44;4985519;30;20041;-69
2022/09/11 05:42:10;;;;;;;76.23;26.50;;;;;;;11.37;100.00;101737.00;4985796;30;20039;-69
2022/09/11 05:44:42;;;;;;;46.90;28.10;;;;;;;11.40;100.00;101737.00;4985425;30;20035;-70
2022/09/11 05:47:13;;;;;;;56.63;27.88;;;;;;;11.44;100.00;101733.50;4985516;30;20056;-69
2022/09/11 05:49:45;;;;;;;47.53;27.87;;;;;;;11.49;100.00;101746.56;4969514;30;20130;-70
2022/09/11 05:52:16;;;;;;;40.67;25.97;;;;;;;11.53;100.00;101743.09;4985802;30;20498;-71
2022/09/11 05:54:48;;;;;;;148.03;28.90;;;;;;;11.44;100.00;101749.16;4985649;30;20488;-70
2022/09/11 05:57:20;;;;;;;117.22;27.63;;;;;;;11.37;100.00;101750.06;4985169;30;20043;-71
2022/09/11 05:59:51;;;;;;;71.23;24.70;;;;;;;11.42;100.00;101748.31;4985578;30;20447;-70
2022/09/11 06:02:22;;;;;;;89.13;27.37;;;;;;;11.42;100.00;101763.13;4969518;30;20047;-70
2022/09/11 06:04:55;;;;;;;112.37;26.67;;;;;;;11.38;100.00;101761.38;4985535;30;20043;-70
2022/09/11 06:07:27;;;;;;;78.80;24.75;;;;;;;11.49;100.00;101757.00;4969543;30;20043;-70
2022/09/11 06:09:58;;;;;;;65.17;25.47;;;;;;;11.39;100.00;101761.38;4985936;30;20036;-70
2022/09/11 06:12:29;;;;;;;28.63;23.80;;;;;;;11.70;100.00;101760.47;4985606;30;20079;-71
2022/09/11 06:15:01;;;;;;;64.83;24.13;;;;;;;11.60;100.00;101770.91;4985337;30;20125;-73
2022/09/11 06:17:32;;;;;;;53.30;23.40;;;;;;;11.77;100.00;101767.41;4985499;30;20127;-71
2022/09/11 06:20:04;;;;;;;84.40;24.30;;;;;;;11.75;100.00;101767.44;4985375;30;20039;-72
2022/09/11 06:22:36;;;;;;;25.30;22.80;;;;;;;11.88;100.00;101770.84;4985516;30;20485;-71
2022/09/11 06:25:08;;;;;;;127.60;26.33;;;;;;;11.68;100.00;101776.13;4985343;30;20046;-70
2022/09/11 06:27:39;;;;;;;166.27;25.50;;;;;;;11.71;100.00;101786.59;4985375;30;20031;-70
2022/09/11 06:30:11;;;;;;;119.33;21.53;;;;;;;11.79;100.00;101794.41;4984855;30;20092;-71
2022/09/11 06:32:42;;;;;;;65.45;22.05;;;;;;;11.86;100.00;101776.13;4985778;30;20039;-70
2022/09/11 06:35:14;;;;;;;122.87;22.77;;;;;;;11.92;100.00;101784.84;4985199;30;20108;-70
2022/09/11 06:37:45;;;;;;;149.70;23.93;;;;;;;11.84;100.00;101790.03;4985772;30;20092;-70
2022/09/11 06:40:17;;;;;;;106.83;22.27;;;;;;;11.92;100.00;101790.06;4985367;30;20065;-70
2022/09/11 06:42:48;;;;;;;81.93;21.53;;;;;;;11.99;100.00;101790.06;4985023;30;20035;-71
2022/09/11 06:45:20;;;;;;;87.03;20.57;;;;;;;12.07;100.00;101787.41;4985446;30;20043;-71
2022/09/11 06:47:51;;;;;;;76.80;22.73;;;;;;;12.19;100.00;101789.13;4968790;30;20050;-71
2022/09/11 06:50:22;;;;;;;93.93;22.53;;;;;;;12.23;100.00;101796.06;4984957;30;20506;-72
2022/09/11 06:52:54;;;;;;;102.27;21.60;;;;;;;12.28;100.00;101791.69;4985009;30;20471;-72
2022/09/11 06:55:26;;;;;;;31.63;19.67;;;;;;;12.53;100.00;101802.06;4987592;29;20512;-72
2022/09/11 06:57:58;;;;;;;26.23;19.75;;;;;;;12.69;100.00;101806.34;4972374;30;20396;-71
2022/09/11 07:00:30;;;;;;;34.53;18.73;;;;;;;12.77;100.00;101795.84;4988421;30;20036;-72
2022/09/11 07:03:03;;;;;;;114.43;21.83;;;;;;;12.87;100.00;101812.34;4988482;30;20035;-71
2022/09/11 07:05:34;;;;;;;86.95;19.58;;;;;;;13.03;100.00;101808.75;4988235;30;20066;-71
2022/09/11 07:08:05;;;;;;;50.57;18.43;;;;;;;13.10;100.00;101810.44;4988418;30;20496;-72
2022/09/11 07:10:37;;;;;;;52.30;18.27;;;;;;;13.17;100.00;101802.53;4988263;30;20159;-71
2022/09/11 07:13:08;;;;;;;63.43;17.63;;;;;;;13.26;100.00;101810.34;4988208;30;20047;-71
2022/09/11 07:15:41;;;;;;;183.20;23.13;;;;;;;13.15;100.00;101815.63;4988403;30;20087;-71
2022/09/11 07:18:12;;;;;;;;;;;;;;;13.49;100.00;101799.69;4988361;30;20039;-71
2022/09/11 07:20:43;;;;;;;76.40;18.67;;;;;;;13.37;100.00;101800.69;4988048;30;19929;-70
2022/09/11 07:23:15;;;;;;;116.67;21.80;;;;;;;13.37;100.00;101808.53;4987926;30;20550;-70
2022/09/11 07:25:47;;;;;;;224.37;25.07;;;;;;;13.25;100.00;101800.72;4988001;30;20047;-70
2022/09/11 07:28:18;;;;;;;155.47;23.00;;;;;;;13.40;100.00;101803.28;4988167;30;20118;-71
2022/09/11 07:30:50;;;;;;;136.73;23.17;;;;;;;13.48;100.00;101801.44;4988189;30;20067;-71
2022/09/11 07:33:21;;;;;;;175.03;22.77;;;;;;;13.49;100.00;101804.94;4987857;30;20031;-71
2022/09/11 07:35:54;;;;;;;117.33;21.13;;;;;;;13.74;100.00;101805.59;4988055;30;20211;-70
2022/09/11 07:38:28;;;;;;;86.18;20.65;;;;;;;13.81;100.00;101802.03;4987781;30;20035;-71
2022/09/11 07:40:59;;;;;;;60.33;19.70;;;;;;;13.87;100.00;101806.34;4987817;30;20495;-70
2022/09/11 07:43:31;;;;;;;43.00;19.57;;;;;;;14.07;100.00;101800.00;4971348;30;20043;-70
2022/09/11 07:46:05;;;;;;;92.10;20.03;;;;;;;14.04;100.00;101809.66;4987603;30;20365;-70
2022/09/11 07:48:38;;;;;;;52.00;20.35;;;;;;;14.25;100.00;101805.06;4988192;30;20063;-70
2022/09/11 07:51:12;;;;;;;77.55;19.90;;;;;;;14.27;100.00;101808.53;4987977;30;20039;-70
2022/09/11 07:53:45;;;;;;;64.32;19.98;;;;;;;14.37;100.00;101810.13;4971586;30;20088;-71
2022/09/11 07:56:22;;;;;;;40.00;20.15;;;;;;;14.52;100.00;101808.22;4987653;30;20184;-70
2022/09/11 07:58:55;;;;;;;32.67;20.23;;;;;;;14.76;100.00;101807.06;4987255;30;20027;-71
2022/09/11 08:01:29;;;;;;;46.42;21.17;;;;;;;14.83;100.00;101813.97;4987317;30;20192;-70
2022/09/11 08:04:04;;;;;;;30.77;19.92;;;;;;;14.98;100.00;101822.50;4987308;30;20067;-70
2022/09/11 08:06:37;;;;;;;39.67;20.00;;;;;;;14.94;100.00;101822.56;4987299;29;20039;-72
2022/09/11 08:09:13;;;;;;;25.10;19.27;;;;;;;15.07;100.00;101824.97;4971716;30;20042;-70
2022/09/11 08:11:47;;;;;;;23.95;19.85;;;;;;;15.26;100.00;101821.22;4987485;30;20107;-71
2022/09/11 08:14:18;;;;;;;22.00;19.38;;;;;;;15.41;100.00;101827.09;4987201;30;20452;-71
2022/09/11 08:16:50;;;;;;;21.83;19.60;;;;;;;15.63;100.00;101828.47;4987897;30;20047;-71
2022/09/11 08:19:22;;;;;;;28.53;19.53;;;;;;;15.64;100.00;101822.31;4986800;30;20429;-71
2022/09/11 08:22:08;;;;;;;20.70;18.65;;;;;;;15.69;100.00;101832.75;5320564;27;20182;-70
2022/09/11 08:24:40;;;;;;;21.80;19.70;;;;;;;15.83;100.00;101836.03;5300779;28;20037;-70
2022/09/11 08:27:12;;;;;;;23.40;21.20;;;;;;;15.98;100.00;101836.66;5299934;28;20020;-70
2022/09/11 08:29:44;;;;;;;26.20;23.00;;;;;;;16.13;100.00;101840.75;5300516;28;20460;-71
2022/09/11 08:32:16;;;;;;;24.67;22.30;;;;;;;16.39;100.00;101842.91;5300041;28;20103;-70
2022/09/11 08:34:47;;;;;;;23.53;21.30;;;;;;;16.45;100.00;101845.38;5299788;28;20563;-70
2022/09/11 08:37:18;;;;;;;28.23;25.50;;;;;;;16.55;100.00;101851.31;5295502;28;20082;-70
2022/09/11 08:39:50;;;;;;;25.50;22.80;;;;;;;16.51;100.00;101850.53;5299576;28;20450;-71
2022/09/11 08:42:22;;;;;;;24.83;22.53;;;;;;;16.36;100.00;101846.44;5299666;28;20089;-71
2022/09/11 08:44:57;;;;;;;24.63;22.20;;;;;;;16.23;100.00;101845.81;5300314;28;20089;-72
2022/09/11 08:47:34;;;;;;;25.05;22.65;;;;;;;16.29;100.00;101851.84;5299642;28;20533;-71
2022/09/11 08:50:23;;;;;;;25.75;23.33;;;;;;;16.22;100.00;101843.22;5299592;28;20054;-71
2022/09/11 08:52:55;;;;;;;27.15;24.65;;;;;;;16.15;100.00;101854.75;5299294;28;20036;-71
2022/09/11 08:55:34;;;;;;;27.77;25.17;;;;;;;16.25;100.00;101848.41;5299392;28;20426;-71
2022/09/11 08:58:21;;;;;;;31.00;28.00;;;;;;;17.09;100.00;101852.81;5299681;28;20026;-70
2022/09/11 09:00:55;;;;;;;28.13;25.58;;;;;;;17.37;100.00;101863.59;5299130;28;20024;-71
2022/09/11 09:03:37;;;;;;;27.10;24.65;;;;;;;17.82;99.80;101860.72;5299021;28;20111;-70
2022/09/11 09:06:38;;;;;;;25.13;22.80;;;;;;;18.51;94.26;101855.31;5298731;28;20032;-71
2022/09/11 09:09:21;;;;;;;25.85;23.33;;;;;;;19.19;90.31;101855.97;5299651;28;20071;-72
2022/09/11 09:11:56;;;;;;;26.02;23.60;;;;;;;19.89;90.12;101856.34;5298073;28;20032;-71
2022/09/11 09:14:49;;;;;;;25.45;23.13;;;;;;;20.94;87.48;101858.66;5299541;28;20444;-72
2022/09/11 09:17:25;;;;;;;24.27;22.08;;;;;;;21.04;81.01;101872.41;5298540;28;20157;-71
2022/09/11 09:20:10;;;;;;;21.63;19.50;;;;;;;21.46;79.56;101867.19;5298805;28;20052;-72
2022/09/11 09:22:47;;;;;;;20.63;18.80;;;;;;;22.02;75.44;101867.50;5299293;28;20032;-71
2022/09/11 09:25:22;;;;;;;22.35;19.48;;;;;;;22.42;75.70;101875.53;5298635;28;20028;-71
2022/09/11 09:28:01;;;;;;;20.95;18.80;;;;;;;22.53;71.45;101860.81;5299381;28;20043;-71
2022/09/11 09:30:56;;;;;;;21.27;19.30;;;;;;;23.57;76.23;101874.50;5298834;28;20028;-71
2022/09/11 09:33:31;;;;;;;18.80;17.05;;;;;;;22.42;69.10;101876.38;5282604;28;20044;-72
2022/09/11 09:36:32;;;;;;;19.10;17.50;;;;;;;22.88;75.40;101868.94;5271353;28;20043;-71
2022/09/11 09:39:13;;;;;;;20.42;18.73;;;;;;;21.56;76.31;101870.34;5281208;28;20491;-72
2022/09/11 09:41:48;;;;;;;20.67;18.52;;;;;;;20.73;74.80;101877.13;5284437;28;20036;-71
2022/09/11 09:44:41;;;;;;;21.98;19.88;;;;;;;20.56;82.37;101869.78;5280071;28;20037;-72
2022/09/11 09:47:13;;;;;;;20.13;18.42;;;;;;;20.01;79.74;101872.66;5275304;28;20031;-72
2022/09/11 09:49:45;;;;;;;22.95;20.95;;;;;;;19.76;83.64;101877.06;5283768;28;20025;-72
2022/09/11 09:52:24;;;;;;;24.25;22.05;;;;;;;19.79;82.96;101879.63;5283276;28;20037;-72
2022/09/11 09:55:01;;;;;;;21.08;19.17;;;;;;;20.89;77.60;101871.22;5284738;28;20032;-72
2022/09/11 09:57:35;;;;;;;19.98;18.10;;;;;;;22.51;72.35;101870.66;5286522;28;20029;-71
2022/09/11 10:00:10;;;;;;;25.67;23.42;;;;;;;23.73;70.93;101878.13;5284778;28;20422;-72
2022/09/11 10:02:52;;;;;;;16.80;15.30;;;;;;;24.30;67.59;101867.19;5284642;28;20476;-72
2022/09/11 10:05:41;;;;;;;18.50;16.90;;;;;;;24.65;61.21;101875.13;5284010;28;20028;-73
2022/09/11 10:08:26;;;;;;;19.13;17.55;;;;;;;25.43;64.23;101877.84;5284796;28;20036;-72
2022/09/11 10:11:04;;;;;;;20.98;19.17;;;;;;;24.24;61.26;101872.00;5283966;28;20024;-72
2022/09/11 10:13:53;;;;;;;19.52;17.80;;;;;;;23.89;67.50;101874.69;5284700;28;20029;-71
2022/09/11 10:16:26;;;;;;;19.95;17.92;;;;;;;22.72;63.62;101881.22;5283792;28;20029;-71
2022/09/11 10:18:59;;;;;;;20.73;18.65;;;;;;;22.55;63.99;101877.53;5280847;28;20036;-72
2022/09/11 10:21:35;;;;;;;22.58;17.02;;;;;;;23.96;63.44;101870.78;5273283;28;20454;-72
2022/09/11 10:24:22;;;;;;;15.43;13.93;;;;;;;24.49;59.29;101874.19;5272797;28;20032;-72
2022/09/11 10:26:54;;;;;;;12.90;11.77;;;;;;;24.35;57.72;101873.13;5262505;28;20036;-71
2022/09/11 10:29:29;;;;;;;12.93;11.52;;;;;;;23.73;54.91;101867.47;5263391;28;20037;-72
2022/09/11 10:32:02;;;;;;;15.18;13.77;;;;;;;24.29;60.28;101873.44;5262482;28;20138;-72
2022/09/11 10:34:39;;;;;;;14.38;12.98;;;;;;;25.06;59.99;101865.75;5262896;28;20033;-71
2022/09/11 10:37:11;;;;;;;16.02;14.63;;;;;;;24.65;56.89;101874.25;5262392;28;20037;-72
2022/09/11 10:39:46;;;;;;;17.20;15.70;;;;;;;23.13;59.73;101862.47;5263032;28;20040;-71
2022/09/11 10:42:29;;;;;;;16.42;14.93;;;;;;;22.30;63.89;101866.31;5260832;28;20060;-71
2022/09/11 10:45:13;;;;;;;16.55;15.13;;;;;;;21.51;68.14;101867.03;5260981;28;20029;-72
2022/09/11 10:47:45;;;;;;;18.17;16.55;;;;;;;20.92;66.87;101866.66;5262461;28;20028;-71
2022/09/11 10:50:16;;;;;;;17.73;16.13;;;;;;;20.83;73.58;101861.72;5262152;28;20044;-70
2022/09/11 10:52:56;;;;;;;18.73;16.93;;;;;;;20.73;72.95;101866.50;5262634;28;20490;-71
2022/09/11 10:55:40;;;;;;;19.38;17.45;;;;;;;20.83;74.32;101867.03;5280894;28;20029;-72
2022/09/11 10:58:17;;;;;;;20.55;18.65;;;;;;;20.52;74.19;101864.66;5283183;28;20476;-71
2022/09/11 11:00:50;;;;;;;21.33;19.42;;;;;;;20.11;74.84;101867.91;5281147;28;20201;-71
2022/09/11 11:03:27;;;;;;;23.00;20.55;;;;;;;20.11;78.78;101869.66;5281249;28;20037;-71
2022/09/11 11:06:02;;;;;;;22.00;19.98;;;;;;;20.03;80.35;101856.72;5281928;28;20028;-71
2022/09/11 11:08:46;;;;;;;21.98;20.08;;;;;;;20.09;81.80;101863.56;5283300;28;20025;-72
2022/09/11 11:11:33;;;;;;;20.55;18.45;;;;;;;20.51;81.47;101857.63;5280993;28;20052;-71
2022/09/11 11:14:47;;;;;;;19.20;17.02;;;;;;;22.17;78.12;101866.84;5282926;28;20098;-71
2022/09/11 11:17:21;;;;;;;15.30;13.80;;;;;;;25.28;63.57;101868.94;5271475;28;20035;-72
2022/09/11 11:20:36;;;;;;;13.95;12.52;;;;;;;27.02;57.14;101868.16;5265168;28;20114;-72
2022/09/11 11:23:23;;;;;;;13.00;11.90;;;;;;;28.05;55.68;101873.78;5263263;28;20028;-72
2022/09/11 11:26:23;;;;;;;12.25;10.10;;;;;;;29.45;54.46;101871.72;5281086;28;20455;-72
2022/09/11 11:29:03;;;;;;;11.95;8.70;;;;;;;30.47;49.89;101868.38;5282380;28;20428;-72
2022/09/11 11:31:55;;;;;;;9.73;8.77;;;;;;;31.36;46.69;101860.22;5281958;28;20079;-73
2022/09/11 11:34:29;;;;;;;8.65;7.80;;;;;;;31.93;38.98;101858.91;5282850;28;20059;-72
2022/09/11 11:37:01;;;;;;;11.15;8.27;;;;;;;31.47;38.04;101857.47;5265648;28;20132;-72
2022/09/11 11:39:56;;;;;;;8.35;7.35;;;;;;;33.01;42.99;101854.75;5260013;28;20088;-72
2022/09/11 11:42:45;;;;;;;8.15;7.35;;;;;;;32.83;42.21;101851.03;5262023;28;20029;-73
2022/09/11 11:45:31;;;;;;;9.40;7.45;;;;;;;33.61;38.24;101848.34;5260909;28;20119;-73